createdAt,value
2022-12-11T00:00:55.072Z,-0.60
2022-12-11T00:03:22.495Z,-0.60
2022-12-11T00:05:49.978Z,-0.60
2022-12-11T00:08:17.403Z,-0.60
2022-12-11T00:10:49.939Z,-0.60
2022-12-11T00:13:17.630Z,-0.60
2022-12-11T00:15:45.125Z,-0.60
2022-12-11T00:18:14.928Z,-0.60
2022-12-11T00:20:42.820Z,-0.70
2022-12-11T00:23:11.151Z,-0.60
2022-12-11T00:25:44.393Z,-0.60
2022-12-11T00:28:13.669Z,-0.60
2022-12-11T00:30:42.906Z,-0.60
2022-12-11T00:33:11.267Z,-0.60
2022-12-11T00:35:44.016Z,-0.60
2022-12-11T00:38:22.617Z,-0.60
2022-12-11T00:40:50.302Z,-0.60
2022-12-11T00:43:18.220Z,-0.60
2022-12-11T00:45:47.430Z,-0.70
2022-12-11T00:48:15.076Z,-0.70
2022-12-11T00:50:42.818Z,-0.70
2022-12-11T00:53:10.256Z,-0.60
2022-12-11T00:55:40.290Z,-0.60
2022-12-11T00:58:08.349Z,-0.70
2022-12-11T01:00:36.249Z,-0.60
2022-12-11T01:03:04.458Z,-0.60
2022-12-11T01:05:32.755Z,-0.60
2022-12-11T01:08:00.899Z,-0.70
2022-12-11T01:10:29.003Z,-0.70
2022-12-11T01:13:06.994Z,-0.70
2022-12-11T01:15:42.099Z,-0.70
2022-12-11T01:18:12.664Z,-0.70
2022-12-11T01:20:42.798Z,-0.70
2022-12-11T01:23:13.319Z,-0.70
2022-12-11T01:25:41.995Z,-0.70
2022-12-11T01:28:10.023Z,-0.80
2022-12-11T01:30:37.915Z,-0.80
2022-12-11T01:33:05.570Z,-0.80
2022-12-11T01:35:34.442Z,-0.80
2022-12-11T01:38:02.056Z,-0.80
2022-12-11T01:40:29.948Z,-0.80
2022-12-11T01:42:57.438Z,-0.80
2022-12-11T01:45:42.140Z,-0.80
2022-12-11T01:48:13.056Z,-0.80
2022-12-11T01:50:47.716Z,-0.80
2022-12-11T01:53:21.786Z,-0.80
2022-12-11T01:55:51.988Z,-0.80
2022-12-11T01:58:23.764Z,-0.80
2022-12-11T02:00:53.652Z,-0.80
2022-12-11T02:03:21.664Z,-0.80
2022-12-11T02:05:49.631Z,-0.80
2022-12-11T02:08:17.590Z,-0.80
2022-12-11T02:11:02.238Z,-0.80
2022-12-11T02:13:52.231Z,-0.90
2022-12-11T02:16:51.884Z,-0.80
2022-12-11T02:19:59.641Z,-0.80
2022-12-11T02:23:06.087Z,-0.80
2022-12-11T02:26:02.152Z,-0.80
2022-12-11T02:28:45.954Z,-0.90
2022-12-11T02:31:35.168Z,-0.90
2022-12-11T02:34:12.897Z,-0.90
2022-12-11T02:36:49.964Z,-0.90
2022-12-11T02:39:19.122Z,-0.90
2022-12-11T02:41:51.497Z,-0.90
2022-12-11T02:44:25.278Z,-0.90
2022-12-11T02:46:53.320Z,-0.90
2022-12-11T02:49:22.596Z,-0.90
2022-12-11T02:51:51.403Z,-0.90
2022-12-11T02:54:25.286Z,-0.90
2022-12-11T02:57:09.599Z,-0.90
2022-12-11T02:59:42.044Z,-0.90
2022-12-11T03:02:09.957Z,-0.90
2022-12-11T03:04:37.730Z,-0.90
2022-12-11T03:07:14.401Z,-0.90
2022-12-11T03:09:46.501Z,-0.90
2022-12-11T03:12:20.455Z,-0.90
2022-12-11T03:14:49.298Z,-0.90
2022-12-11T03:17:24.285Z,-1.00
2022-12-11T03:20:30.635Z,-1.00
2022-12-11T03:23:34.407Z,-1.10
2022-12-11T03:26:13.125Z,-1.10
2022-12-11T03:28:56.415Z,-1.10
2022-12-11T03:31:35.948Z,-1.10
2022-12-11T03:34:11.515Z,-1.20
2022-12-11T03:36:40.504Z,-1.10
2022-12-11T03:39:13.981Z,-1.20
2022-12-11T03:41:44.695Z,-1.20
2022-12-11T03:44:13.225Z,-1.20
2022-12-11T03:46:43.875Z,-1.20
2022-12-11T03:49:21.313Z,-1.20
2022-12-11T03:51:51.848Z,-1.20
2022-12-11T03:54:20.702Z,-1.20
2022-12-11T03:56:49.922Z,-1.20
2022-12-11T03:59:17.445Z,-1.10
2022-12-11T04:01:45.076Z,-1.20
2022-12-11T04:04:12.945Z,-1.10
2022-12-11T04:06:40.358Z,-1.10
2022-12-11T04:09:07.758Z,-1.10
2022-12-11T04:11:35.219Z,-1.10
2022-12-11T04:14:29.022Z,-1.10
2022-12-11T04:16:57.368Z,-1.20
2022-12-11T04:19:44.466Z,-1.10
2022-12-11T04:22:36.535Z,-1.10
2022-12-11T04:25:07.221Z,-1.10
2022-12-11T04:27:50.085Z,-1.10
2022-12-11T04:30:28.121Z,-1.10
2022-12-11T04:32:59.824Z,-1.10
2022-12-11T04:35:27.511Z,-1.20
2022-12-11T04:37:55.013Z,-1.20
2022-12-11T04:40:23.132Z,-1.20
2022-12-11T04:42:50.510Z,-1.20
2022-12-11T04:45:18.567Z,-1.20
2022-12-11T04:47:46.070Z,-1.20
2022-12-11T04:50:15.172Z,-1.20
2022-12-11T04:52:43.354Z,-1.20
2022-12-11T04:55:11.684Z,-1.20
2022-12-11T04:57:39.855Z,-1.30
2022-12-11T05:00:10.988Z,-1.30
2022-12-11T05:02:41.163Z,-1.30
2022-12-11T05:05:11.438Z,-1.30
2022-12-11T05:07:39.708Z,-1.30
2022-12-11T05:10:08.279Z,-1.30
2022-12-11T05:12:35.706Z,-1.30
2022-12-11T05:15:03.512Z,-1.30
2022-12-11T05:17:30.982Z,-1.30
2022-12-11T05:19:58.391Z,-1.30
2022-12-11T05:22:25.844Z,-1.30
2022-12-11T05:24:53.293Z,-1.30
2022-12-11T05:27:21.131Z,-1.30
2022-12-11T05:29:48.646Z,-1.30
2022-12-11T05:32:16.099Z,-1.30
2022-12-11T05:34:43.579Z,-1.30
2022-12-11T05:37:10.983Z,-1.30
2022-12-11T05:39:38.683Z,-1.30
2022-12-11T05:42:06.123Z,-1.40
2022-12-11T05:44:34.027Z,-1.30
2022-12-11T05:47:01.468Z,-1.30
2022-12-11T05:49:31.024Z,-1.40
2022-12-11T05:51:58.787Z,-1.40
2022-12-11T05:54:26.306Z,-1.40
2022-12-11T05:56:53.720Z,-1.40
2022-12-11T05:59:21.308Z,-1.40
2022-12-11T06:01:48.883Z,-1.40
2022-12-11T06:04:16.396Z,-1.40
2022-12-11T06:06:46.814Z,-1.40
2022-12-11T06:09:16.472Z,-1.40
2022-12-11T06:11:44.121Z,-1.40
2022-12-11T06:14:12.524Z,-1.40
2022-12-11T06:16:40.174Z,-1.50
2022-12-11T06:19:14.398Z,-1.40
2022-12-11T06:21:42.281Z,-1.40
2022-12-11T06:24:12.084Z,-1.40
2022-12-11T06:26:39.639Z,-1.40
2022-12-11T06:29:11.017Z,-1.40
2022-12-11T06:31:40.548Z,-1.40
2022-12-11T06:34:09.039Z,-1.40
2022-12-11T06:36:36.505Z,-1.40
2022-12-11T06:39:04.297Z,-1.40
2022-12-11T06:41:31.876Z,-1.40
2022-12-11T06:43:59.338Z,-1.40
2022-12-11T06:46:26.763Z,-1.50
2022-12-11T06:48:54.285Z,-1.40
2022-12-11T06:51:23.571Z,-1.50
2022-12-11T06:53:56.800Z,-1.40
2022-12-11T06:56:25.169Z,-1.40
2022-12-11T06:58:52.912Z,-1.40
2022-12-11T07:01:23.932Z,-1.50
2022-12-11T07:03:54.644Z,-1.50
2022-12-11T07:06:22.603Z,-1.50
2022-12-11T07:08:50.258Z,-1.50
2022-12-11T07:11:19.659Z,-1.50
2022-12-11T07:13:48.154Z,-1.40
2022-12-11T07:16:17.574Z,-1.50
2022-12-11T07:18:50.437Z,-1.50
2022-12-11T07:21:18.760Z,-1.50
2022-12-11T07:23:46.880Z,-1.50
2022-12-11T07:26:18.299Z,-1.50
2022-12-11T07:28:46.028Z,-1.50
2022-12-11T07:31:17.450Z,-1.50
2022-12-11T07:33:45.207Z,-1.50
2022-12-11T07:36:14.488Z,-1.50
2022-12-11T07:38:42.417Z,-1.50
2022-12-11T07:41:13.304Z,-1.50
2022-12-11T07:43:41.762Z,-1.50
2022-12-11T07:46:15.875Z,-1.50
2022-12-11T07:48:45.504Z,-1.50
2022-12-11T07:51:25.211Z,-1.50
2022-12-11T07:53:55.358Z,-1.50
2022-12-11T07:56:23.118Z,-1.50
2022-12-11T07:58:50.983Z,-1.50
2022-12-11T08:01:26.281Z,-1.50
2022-12-11T08:03:54.582Z,-1.50
2022-12-11T08:06:28.376Z,-1.50
2022-12-11T08:08:57.321Z,-1.50
2022-12-11T08:11:25.441Z,-1.40
2022-12-11T08:13:53.279Z,-1.40
2022-12-11T08:16:21.494Z,-1.40
2022-12-11T08:18:50.259Z,-1.50
2022-12-11T08:21:21.949Z,-1.50
2022-12-11T08:23:50.613Z,-1.50
2022-12-11T08:26:30.613Z,-1.50
2022-12-11T08:28:59.328Z,-1.50
2022-12-11T08:31:27.266Z,-1.50
2022-12-11T08:33:56.945Z,-1.50
2022-12-11T08:36:25.662Z,-1.50
2022-12-11T08:38:55.856Z,-1.50
2022-12-11T08:41:30.654Z,-1.50
2022-12-11T08:44:00.459Z,-1.50
2022-12-11T08:46:33.292Z,-1.50
2022-12-11T08:49:00.936Z,-1.60
2022-12-11T08:51:30.466Z,-1.60
2022-12-11T08:54:00.192Z,-1.60
2022-12-11T08:56:29.825Z,-1.60
2022-12-11T08:59:00.733Z,-1.60
2022-12-11T09:01:29.082Z,-1.60
2022-12-11T09:03:57.904Z,-1.70
2022-12-11T09:06:29.072Z,-1.70
2022-12-11T09:08:59.932Z,-1.60
2022-12-11T09:11:32.009Z,-1.70
2022-12-11T09:14:05.150Z,-1.70
2022-12-11T09:16:40.690Z,-1.60
2022-12-11T09:19:13.799Z,-1.60
2022-12-11T09:21:43.539Z,-1.60
2022-12-11T09:24:13.113Z,-1.60
2022-12-11T09:26:41.118Z,-1.60
2022-12-11T09:29:12.844Z,-1.70
2022-12-11T09:31:40.685Z,-1.60
2022-12-11T09:34:11.885Z,-1.60
2022-12-11T09:36:41.346Z,-1.60
2022-12-11T09:39:12.063Z,-1.60
2022-12-11T09:42:09.213Z,-1.60
2022-12-11T09:44:51.963Z,-1.60
2022-12-11T09:47:39.586Z,-1.60
2022-12-11T09:50:10.013Z,-1.60
2022-12-11T09:53:11.224Z,-1.60
2022-12-11T09:56:17.920Z,-1.60
2022-12-11T09:59:17.213Z,-1.70
2022-12-11T10:02:21.709Z,-1.70
2022-12-11T10:05:19.565Z,-1.60
2022-12-11T10:08:00.892Z,-1.60
2022-12-11T10:11:06.476Z,-1.70
2022-12-11T10:14:19.747Z,-1.70
2022-12-11T10:16:55.909Z,-1.80
2022-12-11T10:19:30.176Z,-1.80
2022-12-11T10:21:59.040Z,-1.80
2022-12-11T10:25:09.606Z,-1.80
2022-12-11T10:27:31.365Z,-1.70
2022-12-11T10:30:20.240Z,-1.70
2022-12-11T10:32:58.368Z,-1.70
2022-12-11T10:35:33.951Z,-1.60
2022-12-11T10:38:15.186Z,-1.60
2022-12-11T10:40:49.391Z,-1.70
2022-12-11T10:43:16.970Z,-1.60
2022-12-11T10:45:53.444Z,-1.70
2022-12-11T10:48:22.214Z,-1.70
2022-12-11T10:51:16.198Z,-1.70
2022-12-11T10:53:44.808Z,-1.60
2022-12-11T10:56:13.074Z,-1.60
2022-12-11T10:58:50.167Z,-1.70
2022-12-11T11:01:22.731Z,-1.60
2022-12-11T11:04:04.475Z,-1.60
2022-12-11T11:06:31.917Z,-1.60
2022-12-11T11:09:01.754Z,-1.60
2022-12-11T11:11:38.779Z,-1.70
2022-12-11T11:14:17.878Z,-1.70
2022-12-11T11:16:49.198Z,-1.80
2022-12-11T11:19:35.387Z,-1.90
2022-12-11T11:22:14.524Z,-2.00
2022-12-11T11:25:18.025Z,-2.00
2022-12-11T11:27:59.410Z,-2.00
2022-12-11T11:30:31.528Z,-2.00
2022-12-11T11:33:05.276Z,-2.00
2022-12-11T11:35:33.295Z,-2.00
2022-12-11T11:38:12.011Z,-1.90
2022-12-11T11:40:49.283Z,-1.90
2022-12-11T11:43:33.615Z,-1.90
2022-12-11T11:46:23.875Z,-1.90
2022-12-11T11:49:24.668Z,-1.80
2022-12-11T11:52:35.303Z,-1.80
2022-12-11T11:55:22.014Z,-1.80
2022-12-11T11:58:06.354Z,-1.90
2022-12-11T12:00:34.245Z,-1.90
2022-12-11T12:03:10.445Z,-1.90
2022-12-11T12:06:15.474Z,-1.90
2022-12-11T12:09:06.529Z,-1.90
2022-12-11T12:12:26.474Z,-1.90
2022-12-11T12:15:32.976Z,-1.90
2022-12-11T12:18:32.387Z,-1.90
2022-12-11T12:21:37.572Z,-2.00
2022-12-11T12:24:13.999Z,-2.00
2022-12-11T12:27:29.161Z,-2.00
2022-12-11T12:30:21.817Z,-2.00
2022-12-11T12:33:14.305Z,-2.00
2022-12-11T12:36:25.324Z,-2.00
2022-12-11T12:39:02.570Z,-2.00
2022-12-11T12:41:36.805Z,-2.00
2022-12-11T12:44:25.067Z,-2.00
2022-12-11T12:47:00.941Z,-2.00
2022-12-11T12:49:43.968Z,-2.00
2022-12-11T12:52:20.629Z,-2.10
2022-12-11T12:55:13.465Z,-2.00
2022-12-11T12:57:48.380Z,-2.00
2022-12-11T13:00:43.691Z,-1.90
2022-12-11T13:03:22.032Z,-1.90
2022-12-11T13:06:09.122Z,-1.90
2022-12-11T13:08:48.379Z,-1.90
2022-12-11T13:11:19.786Z,-1.90
2022-12-11T13:14:28.123Z,-2.00
2022-12-11T13:17:21.412Z,-2.00
2022-12-11T13:19:53.175Z,-1.90
2022-12-11T13:22:25.119Z,-2.00
2022-12-11T13:24:52.400Z,-2.00
2022-12-11T13:27:29.889Z,-2.00
2022-12-11T13:30:24.418Z,-2.00
2022-12-11T13:33:08.567Z,-1.90
2022-12-11T13:35:36.226Z,-2.00
2022-12-11T13:38:13.443Z,-2.00
2022-12-11T13:40:44.884Z,-2.00
2022-12-11T13:43:26.811Z,-2.00
2022-12-11T13:46:04.138Z,-2.10
2022-12-11T13:48:40.572Z,-2.00
2022-12-11T13:51:08.327Z,-2.00
2022-12-11T13:53:35.772Z,-2.00
2022-12-11T13:56:13.898Z,-2.00
2022-12-11T13:58:41.487Z,-2.10
2022-12-11T14:01:27.720Z,-2.10
2022-12-11T14:04:16.428Z,-2.10
2022-12-11T14:06:44.168Z,-2.10
2022-12-11T14:09:23.085Z,-2.10
2022-12-11T14:11:56.452Z,-2.10
2022-12-11T14:14:41.127Z,-2.10
2022-12-11T14:17:15.470Z,-2.10
2022-12-11T14:19:52.315Z,-2.10
2022-12-11T14:22:24.148Z,-2.20
2022-12-11T14:24:59.736Z,-2.20
2022-12-11T14:27:28.570Z,-2.20
2022-12-11T14:29:56.402Z,-2.20
2022-12-11T14:32:36.723Z,-2.20
2022-12-11T14:35:07.433Z,-2.20
2022-12-11T14:37:37.275Z,-2.20
2022-12-11T14:40:16.728Z,-2.20
2022-12-11T14:42:49.824Z,-2.20
2022-12-11T14:45:39.531Z,-2.20
2022-12-11T14:48:25.792Z,-2.20
2022-12-11T14:50:58.066Z,-2.20
2022-12-11T14:53:38.630Z,-2.20
2022-12-11T14:56:08.914Z,-2.30
2022-12-11T14:58:49.420Z,-2.30
2022-12-11T15:01:28.016Z,-2.30
2022-12-11T15:04:31.347Z,-2.30
2022-12-11T15:07:00.079Z,-2.20
2022-12-11T15:09:38.380Z,-2.20
2022-12-11T15:12:17.186Z,-2.30
2022-12-11T15:14:58.865Z,-2.30
2022-12-11T15:17:27.792Z,-2.30
2022-12-11T15:20:24.303Z,-2.30
2022-12-11T15:22:52.377Z,-2.30
2022-12-11T15:25:23.817Z,-2.30
2022-12-11T15:27:58.820Z,-2.30
2022-12-11T15:30:35.180Z,-2.40
2022-12-11T15:33:11.176Z,-2.40
2022-12-11T15:36:05.100Z,-2.40
2022-12-11T15:38:40.915Z,-2.40
2022-12-11T15:41:17.777Z,-2.40
2022-12-11T15:43:45.733Z,-2.50
2022-12-11T15:46:13.434Z,-2.50
2022-12-11T15:48:40.967Z,-2.50
2022-12-11T15:51:09.549Z,-2.50
2022-12-11T15:53:37.318Z,-2.50
2022-12-11T15:56:05.278Z,-2.50
2022-12-11T15:58:33.377Z,-2.50
2022-12-11T16:01:00.919Z,-2.50
2022-12-11T16:03:28.408Z,-2.50
2022-12-11T16:05:55.858Z,-2.50
2022-12-11T16:08:24.820Z,-2.50
2022-12-11T16:10:54.940Z,-2.50
2022-12-11T16:13:23.271Z,-2.50
2022-12-11T16:15:52.226Z,-2.50
2022-12-11T16:18:23.592Z,-2.50
2022-12-11T16:20:52.413Z,-2.40
2022-12-11T16:23:20.411Z,-2.50
2022-12-11T16:25:48.660Z,-2.40
2022-12-11T16:28:20.894Z,-2.40
2022-12-11T16:30:48.780Z,-2.50
2022-12-11T16:33:16.580Z,-2.40
2022-12-11T16:35:44.072Z,-2.40
2022-12-11T16:38:12.408Z,-2.40
2022-12-11T16:40:40.697Z,-2.40
2022-12-11T16:43:08.552Z,-2.50
2022-12-11T16:45:36.648Z,-2.40
2022-12-11T16:48:05.520Z,-2.50
2022-12-11T16:50:33.101Z,-2.40
2022-12-11T16:53:00.687Z,-2.50
2022-12-11T16:55:28.136Z,-2.50
2022-12-11T16:57:55.658Z,-2.40
2022-12-11T17:00:23.297Z,-2.40
2022-12-11T17:02:50.769Z,-2.40
2022-12-11T17:05:18.380Z,-2.40
2022-12-11T17:07:45.865Z,-2.40
2022-12-11T17:10:13.416Z,-2.50
2022-12-11T17:12:40.852Z,-2.50
2022-12-11T17:15:08.764Z,-2.40
2022-12-11T17:17:36.248Z,-2.50
2022-12-11T17:20:04.333Z,-2.50
2022-12-11T17:22:31.771Z,-2.40
2022-12-11T17:24:59.192Z,-2.50
2022-12-11T17:27:26.869Z,-2.50
2022-12-11T17:29:54.400Z,-2.40
2022-12-11T17:32:21.805Z,-2.40
2022-12-11T17:34:50.650Z,-2.40
2022-12-11T17:37:18.849Z,-2.40
2022-12-11T17:39:47.661Z,-2.40
2022-12-11T17:42:15.140Z,-2.40
2022-12-11T17:44:42.580Z,-2.40
2022-12-11T17:47:12.173Z,-2.40
2022-12-11T17:49:40.542Z,-2.30
2022-12-11T17:52:08.152Z,-2.40
2022-12-11T17:54:35.661Z,-2.30
2022-12-11T17:57:03.569Z,-2.40
2022-12-11T17:59:31.660Z,-2.30
2022-12-11T18:01:59.333Z,-2.30
2022-12-11T18:04:26.911Z,-2.40
2022-12-11T18:06:54.320Z,-2.40
2022-12-11T18:09:21.785Z,-2.50
2022-12-11T18:11:49.262Z,-2.40
2022-12-11T18:14:17.565Z,-2.30
2022-12-11T18:16:45.421Z,-2.40
2022-12-11T18:19:13.938Z,-2.40
2022-12-11T18:21:45.832Z,-2.40
2022-12-11T18:24:13.450Z,-2.40
2022-12-11T18:26:43.071Z,-2.50
2022-12-11T18:29:10.688Z,-2.50
2022-12-11T18:31:42.333Z,-2.50
2022-12-11T18:34:11.453Z,-2.50
2022-12-11T18:36:40.886Z,-2.40
2022-12-11T18:39:08.474Z,-2.50
2022-12-11T18:41:35.946Z,-2.50
2022-12-11T18:44:09.318Z,-2.50
2022-12-11T18:46:37.732Z,-2.50
2022-12-11T18:49:05.919Z,-2.50
2022-12-11T18:51:33.295Z,-2.50
2022-12-11T18:54:00.741Z,-2.50
2022-12-11T18:56:28.145Z,-2.50
2022-12-11T18:58:55.654Z,-2.50
2022-12-11T19:01:27.454Z,-2.40
2022-12-11T19:04:04.209Z,-2.40
2022-12-11T19:06:33.438Z,-2.40
2022-12-11T19:09:01.832Z,-2.40
2022-12-11T19:11:31.449Z,-2.40
2022-12-11T19:13:59.225Z,-2.40
2022-12-11T19:16:33.875Z,-2.40
2022-12-11T19:19:06.605Z,-2.40
2022-12-11T19:21:35.590Z,-2.40
2022-12-11T19:24:03.340Z,-2.50
2022-12-11T19:26:31.016Z,-2.40
2022-12-11T19:29:01.899Z,-2.40
2022-12-11T19:31:32.138Z,-2.40
2022-12-11T19:34:01.055Z,-2.30
2022-12-11T19:36:31.343Z,-2.30
2022-12-11T19:39:01.770Z,-2.30
2022-12-11T19:41:31.308Z,-2.30
2022-12-11T19:44:00.194Z,-2.30
2022-12-11T19:46:29.375Z,-2.40
2022-12-11T19:48:58.926Z,-2.40
2022-12-11T19:51:36.671Z,-2.30
2022-12-11T19:54:05.339Z,-2.30
2022-12-11T19:56:34.689Z,-2.30
2022-12-11T19:59:05.345Z,-2.30
2022-12-11T20:01:36.128Z,-2.30
2022-12-11T20:04:10.855Z,-2.30
2022-12-11T20:06:41.759Z,-2.30
2022-12-11T20:09:12.050Z,-2.30
2022-12-11T20:11:42.011Z,-2.30
2022-12-11T20:14:10.004Z,-2.30
2022-12-11T20:17:09.462Z,-2.40
2022-12-11T20:19:26.357Z,-2.40
2022-12-11T20:21:53.863Z,-2.40
2022-12-11T20:24:21.259Z,-2.40
2022-12-11T20:26:49.359Z,-2.40
2022-12-11T20:29:17.242Z,-2.40
2022-12-11T20:31:45.753Z,-2.30
2022-12-11T20:34:13.253Z,-2.30
2022-12-11T20:36:40.764Z,-2.30
2022-12-11T20:39:08.176Z,-2.20
2022-12-11T20:41:35.669Z,-2.30
2022-12-11T20:44:03.114Z,-2.30
2022-12-11T20:46:30.494Z,-2.30
2022-12-11T20:49:01.292Z,-2.30
2022-12-11T20:51:29.228Z,-2.30
2022-12-11T20:54:01.408Z,-2.30
2022-12-11T20:56:31.070Z,-2.40
2022-12-11T20:59:00.831Z,-2.40
2022-12-11T21:01:32.336Z,-2.30
2022-12-11T21:04:00.137Z,-2.30
2022-12-11T21:06:34.829Z,-2.30
2022-12-11T21:09:12.779Z,-2.30
2022-12-11T21:11:40.352Z,-2.30
2022-12-11T21:14:07.871Z,-2.30
2022-12-11T21:16:36.869Z,-2.20
2022-12-11T21:19:05.599Z,-2.20
2022-12-11T21:21:39.868Z,-2.20
2022-12-11T21:24:09.030Z,-2.10
2022-12-11T21:26:36.524Z,-2.10
2022-12-11T21:29:04.253Z,-2.10
2022-12-11T21:31:31.863Z,-2.20
2022-12-11T21:33:59.386Z,-2.10
2022-12-11T21:36:27.205Z,-2.10
2022-12-11T21:38:56.546Z,-2.10
2022-12-11T21:41:25.636Z,-2.10
2022-12-11T21:46:43.783Z,-2.10
2022-12-11T21:49:11.267Z,-2.10
2022-12-11T21:51:46.732Z,-2.10
2022-12-11T21:54:18.346Z,-2.20
2022-12-11T21:56:46.897Z,-2.20
2022-12-11T21:59:15.080Z,-2.30
2022-12-11T22:01:46.158Z,-2.20
2022-12-11T22:04:17.593Z,-2.30
2022-12-11T22:06:47.479Z,-2.20
2022-12-11T22:09:16.489Z,-2.20
2022-12-11T22:11:45.590Z,-2.20
2022-12-11T22:14:17.648Z,-2.20
2022-12-11T22:16:45.916Z,-2.20
2022-12-11T22:19:13.722Z,-2.20
2022-12-11T22:21:41.493Z,-2.10
2022-12-11T22:24:09.375Z,-2.10
2022-12-11T22:26:36.818Z,-2.10
2022-12-11T22:29:04.509Z,-2.10
2022-12-11T22:31:32.266Z,-2.10
2022-12-11T22:33:59.855Z,-2.20
2022-12-11T22:36:28.018Z,-2.20
2022-12-11T22:38:55.936Z,-2.20
2022-12-11T22:41:30.185Z,-2.10
2022-12-11T22:43:59.164Z,-2.20
2022-12-11T22:46:29.995Z,-2.10
2022-12-11T22:48:58.541Z,-2.10
2022-12-11T22:51:26.041Z,-2.10
2022-12-11T22:53:53.617Z,-2.20
2022-12-11T22:56:21.573Z,-2.20
2022-12-11T22:58:49.037Z,-2.20
2022-12-11T23:01:21.367Z,-2.20
2022-12-11T23:03:49.553Z,-2.20
2022-12-11T23:06:21.478Z,-2.20
2022-12-11T23:08:49.461Z,-2.30
2022-12-11T23:11:24.842Z,-2.20
2022-12-11T23:13:53.471Z,-2.10
2022-12-11T23:16:23.708Z,-2.20
2022-12-11T23:18:51.425Z,-2.20
2022-12-11T23:21:18.954Z,-2.20
2022-12-11T23:23:47.132Z,-2.20
2022-12-11T23:26:15.766Z,-2.20
2022-12-11T23:28:43.207Z,-2.20
2022-12-11T23:31:11.490Z,-2.20
2022-12-11T23:33:39.200Z,-2.20
2022-12-11T23:36:07.614Z,-2.10
2022-12-11T23:38:35.621Z,-2.20
2022-12-11T23:41:05.022Z,-2.20
2022-12-11T23:43:34.475Z,-2.20
2022-12-11T23:46:03.355Z,-2.10
2022-12-11T23:48:31.463Z,-2.10
2022-12-11T23:51:04.345Z,-2.10
2022-12-11T23:53:31.925Z,-2.20
2022-12-11T23:56:06.766Z,-2.20
2022-12-11T23:58:37.620Z,-2.10
